Airport View

Enter AWOS ICAO identifier for current METAR.

ex. KFNL

KCHD 250347Z 00000KT 10SM CLR 32/06 A2980 RMK LAST

25 Sep 2020 12:55

Frequency: 128.325

Phone: 480-814-9952

Other Area AWOS: KIWA - KFFZ - KPHX - KA39

TAF KIWA 251130Z 2512/2612 13007KT P6SM SKC FM251800 28006KT P6SM SKC FM260300 VRB03KT P6SM SKC FM260600 12006KT P6SM SKC